createdAt,value
2024-01-15T00:02:07.027Z,98106.28
2024-01-15T00:04:37.700Z,98115.91
2024-01-15T00:07:06.860Z,98121.88
2024-01-15T00:09:34.708Z,98107.88
2024-01-15T00:12:03.115Z,98097.75
2024-01-15T00:14:31.057Z,98090.53
2024-01-15T00:16:58.596Z,98098.69
2024-01-15T00:19:26.297Z,98096.53
2024-01-15T00:21:53.969Z,98093.16
2024-01-15T00:24:22.966Z,98084.41
2024-01-15T00:26:50.596Z,98086.97
2024-01-15T00:29:18.300Z,98094.94
2024-01-15T00:31:45.865Z,98095.63
2024-01-15T00:34:13.592Z,98072.97
2024-01-15T00:36:41.272Z,98074.66
2024-01-15T00:39:09.096Z,98083.41
2024-01-15T00:41:38.087Z,98083.53
2024-01-15T00:44:05.871Z,98066.97
2024-01-15T00:46:33.448Z,98068.47
2024-01-15T00:49:01.142Z,98077.28
2024-01-15T00:51:28.791Z,98077.28
2024-01-15T00:53:56.584Z,98072.25
2024-01-15T00:56:24.177Z,98070.28
2024-01-15T00:58:53.070Z,98083.38
2024-01-15T01:01:20.677Z,98079.81
2024-01-15T01:03:48.484Z,98075.44
2024-01-15T01:06:16.152Z,98071.25
2024-01-15T01:08:43.819Z,98078.16
2024-01-15T01:11:15.060Z,98070.56
2024-01-15T01:13:42.588Z,98070.25
2024-01-15T01:16:11.526Z,98082.72
2024-01-15T01:18:39.211Z,98074.06
2024-01-15T01:21:06.927Z,98091.22
2024-01-15T01:23:34.637Z,98080.03
2024-01-15T01:26:02.443Z,98074.56
2024-01-15T01:28:30.175Z,98082.28
2024-01-15T01:30:57.787Z,98077.69
2024-01-15T01:33:26.750Z,98070.09
2024-01-15T01:35:54.382Z,98066.00
2024-01-15T01:38:21.936Z,98069.44
2024-01-15T01:40:49.693Z,98067.81
2024-01-15T01:43:17.410Z,98060.88
2024-01-15T01:45:45.285Z,98056.69
2024-01-15T01:48:13.360Z,98060.91
2024-01-15T01:50:42.360Z,98051.31
2024-01-15T01:53:11.162Z,98039.97
2024-01-15T01:55:40.413Z,98041.75
2024-01-15T01:58:08.403Z,98042.56
2024-01-15T02:00:37.261Z,98039.13
2024-01-15T02:03:05.624Z,98029.59
2024-01-15T02:05:34.036Z,98034.88
2024-01-15T02:08:03.046Z,98033.91
2024-01-15T02:10:30.656Z,98028.00
2024-01-15T02:12:58.275Z,98039.22
2024-01-15T02:15:25.919Z,98030.56
2024-01-15T02:18:01.031Z,98037.50
2024-01-15T02:20:28.900Z,98037.19
2024-01-15T02:22:56.453Z,98026.81
2024-01-15T02:25:25.313Z,98044.44
2024-01-15T02:27:53.284Z,98034.59
2024-01-15T02:30:21.149Z,98037.22
2024-01-15T02:32:49.015Z,98035.41
2024-01-15T02:35:16.821Z,98025.06
2024-01-15T02:37:44.360Z,98005.44
2024-01-15T02:40:12.882Z,98006.53
2024-01-15T02:42:41.823Z,98002.97
2024-01-15T02:45:10.059Z,97997.13
2024-01-15T02:47:37.666Z,98005.72
2024-01-15T02:50:06.536Z,97994.38
2024-01-15T02:52:34.124Z,98000.56
2024-01-15T02:55:02.559Z,98006.47
2024-01-15T02:57:30.204Z,97984.53
2024-01-15T02:59:59.095Z,97987.28
2024-01-15T03:02:26.707Z,97975.88
2024-01-15T03:04:54.481Z,97973.34
2024-01-15T03:07:22.016Z,97973.31
2024-01-15T03:09:49.762Z,97981.03
2024-01-15T03:12:17.874Z,97978.53
2024-01-15T03:14:45.545Z,97976.69
2024-01-15T03:17:14.696Z,97980.16
2024-01-15T03:19:42.804Z,97975.06
2024-01-15T03:22:10.478Z,97982.75
2024-01-15T03:24:38.307Z,97978.34
2024-01-15T03:27:06.489Z,97988.78
2024-01-15T03:29:34.202Z,97970.56
2024-01-15T03:32:01.939Z,97973.06
2024-01-15T03:34:30.933Z,97955.66
2024-01-15T03:36:58.637Z,97963.41
2024-01-15T03:39:26.279Z,97978.41
2024-01-15T03:41:53.851Z,97960.00
2024-01-15T03:44:21.405Z,97961.72
2024-01-15T03:46:48.963Z,97953.03
2024-01-15T03:49:16.684Z,97954.75
2024-01-15T03:51:45.680Z,97950.34
2024-01-15T03:54:13.394Z,97964.31
2024-01-15T03:56:41.076Z,97959.84
2024-01-15T03:59:09.790Z,97952.97
2024-01-15T04:01:37.509Z,97951.13
2024-01-15T04:04:05.436Z,97946.72
2024-01-15T04:06:33.149Z,97949.34
2024-01-15T04:09:02.252Z,97951.94
2024-01-15T04:11:30.127Z,97955.41
2024-01-15T04:13:57.902Z,97952.03
2024-01-15T04:16:25.520Z,97946.91
2024-01-15T04:18:53.156Z,97949.59
2024-01-15T04:21:20.828Z,97963.44
2024-01-15T04:23:48.377Z,97970.38
2024-01-15T04:26:17.278Z,97964.28
2024-01-15T04:28:44.804Z,97965.94
2024-01-15T04:31:22.396Z,97961.44
2024-01-15T04:33:50.296Z,97972.09
2024-01-15T04:36:18.109Z,97954.75
2024-01-15T04:38:45.888Z,97963.72
2024-01-15T04:41:14.293Z,97976.44
2024-01-15T04:43:43.214Z,97954.00
2024-01-15T04:46:10.819Z,97960.91
2024-01-15T04:48:38.649Z,97964.34
2024-01-15T04:51:07.531Z,97972.38
2024-01-15T04:53:36.098Z,97960.88
2024-01-15T04:56:03.909Z,97964.41
2024-01-15T04:58:31.736Z,97959.09
2024-01-15T05:01:00.749Z,97972.16
2024-01-15T05:03:28.593Z,97973.00
2024-01-15T05:05:56.705Z,97974.97
2024-01-15T05:08:24.401Z,97966.22
2024-01-15T05:10:51.968Z,97971.28
2024-01-15T05:13:19.588Z,97978.16
2024-01-15T05:15:47.285Z,97981.13
2024-01-15T05:18:16.347Z,97974.78
2024-01-15T05:20:44.295Z,97971.34
2024-01-15T05:23:11.908Z,97975.59
2024-01-15T05:25:39.483Z,97966.88
2024-01-15T05:28:07.937Z,97968.59
2024-01-15T05:30:35.612Z,97952.84
2024-01-15T05:33:04.075Z,97950.38
2024-01-15T05:35:33.042Z,97966.84
2024-01-15T05:38:00.613Z,97954.78
2024-01-15T05:40:28.156Z,97944.31
2024-01-15T05:42:55.725Z,97966.09
2024-01-15T05:45:23.689Z,97950.19
2024-01-15T05:47:51.518Z,97962.59
2024-01-15T05:50:19.196Z,97961.66
2024-01-15T05:52:48.259Z,97958.13
2024-01-15T05:55:16.080Z,97958.22
2024-01-15T05:57:43.842Z,97957.25
2024-01-15T06:00:12.848Z,97948.53
2024-01-15T06:02:40.890Z,97947.69
2024-01-15T06:05:08.793Z,97943.53
2024-01-15T06:07:37.089Z,97941.69
2024-01-15T06:10:06.931Z,97934.56
2024-01-15T06:12:34.969Z,97938.88
2024-01-15T06:15:03.355Z,97932.06
2024-01-15T06:17:31.120Z,97934.69
2024-01-15T06:19:59.023Z,97962.41
2024-01-15T06:22:26.710Z,97953.75
2024-01-15T06:24:54.399Z,97937.03
2024-01-15T06:27:23.372Z,97948.50
2024-01-15T06:29:51.466Z,97950.28
2024-01-15T06:32:19.220Z,97949.19
2024-01-15T06:34:46.928Z,97953.59
2024-01-15T06:37:14.620Z,97956.22
2024-01-15T06:39:42.260Z,97964.97
2024-01-15T06:42:10.000Z,97956.28
2024-01-15T06:44:38.963Z,97958.03
2024-01-15T06:47:07.979Z,97950.19
2024-01-15T06:49:35.910Z,97955.59
2024-01-15T06:52:03.597Z,97961.66
2024-01-15T06:54:31.198Z,97965.22
2024-01-15T06:56:58.775Z,97964.34
2024-01-15T06:59:26.349Z,97955.59
2024-01-15T07:01:56.124Z,97957.63
2024-01-15T07:04:24.131Z,97958.28
2024-01-15T07:06:51.947Z,97980.88
2024-01-15T07:09:19.633Z,97979.13
2024-01-15T07:11:48.027Z,97988.69
2024-01-15T07:14:15.596Z,97966.22
2024-01-15T07:16:46.094Z,97976.63
2024-01-15T07:19:16.967Z,97982.81
2024-01-15T07:21:44.841Z,97976.56
2024-01-15T07:24:12.620Z,97986.19
2024-01-15T07:26:40.701Z,97987.22
2024-01-15T07:29:08.441Z,97994.03
2024-01-15T07:31:36.133Z,97987.06
2024-01-15T07:34:04.076Z,97984.28
2024-01-15T07:36:33.058Z,97984.53
2024-01-15T07:39:00.617Z,97995.75
2024-01-15T07:41:28.251Z,97996.72
2024-01-15T07:43:55.935Z,98001.00
2024-01-15T07:46:23.660Z,98002.03
2024-01-15T07:48:57.095Z,98001.31
2024-01-15T07:51:25.150Z,97995.13
2024-01-15T07:53:56.335Z,97997.75
2024-01-15T07:56:24.148Z,98018.69
2024-01-15T07:58:51.747Z,98020.38
2024-01-15T08:01:19.671Z,98014.47
2024-01-15T08:03:47.451Z,98020.41
2024-01-15T08:06:15.742Z,98010.06
2024-01-15T08:08:43.359Z,98014.44
2024-01-15T08:11:13.394Z,98007.56
2024-01-15T08:13:40.992Z,98012.78
2024-01-15T08:16:08.604Z,98016.38
2024-01-15T08:18:36.555Z,98014.44
2024-01-15T08:21:04.825Z,98016.38
2024-01-15T08:23:32.598Z,98004.00
2024-01-15T08:26:00.432Z,98011.97
2024-01-15T08:28:29.349Z,98018.03
2024-01-15T08:30:57.200Z,98024.09
2024-01-15T08:33:25.173Z,98021.47
2024-01-15T08:35:52.961Z,98015.41
2024-01-15T08:38:20.882Z,98029.53
2024-01-15T08:40:48.774Z,98035.66
2024-01-15T08:43:16.528Z,98028.53
2024-01-15T08:45:46.333Z,98025.06
2024-01-15T08:48:14.212Z,98045.84
2024-01-15T08:50:41.994Z,98038.13
2024-01-15T08:53:09.664Z,98042.50
2024-01-15T08:55:37.378Z,98052.13
2024-01-15T08:58:05.342Z,98046.75
2024-01-15T09:00:33.098Z,98038.94
2024-01-15T09:03:03.147Z,98044.91
2024-01-15T09:05:30.910Z,98030.19
2024-01-15T09:07:58.707Z,98031.78
2024-01-15T09:10:26.299Z,98048.28
2024-01-15T09:12:54.276Z,98032.66
2024-01-15T09:15:22.152Z,98040.53
2024-01-15T09:17:49.949Z,98040.59
2024-01-15T09:20:19.591Z,98043.06
2024-01-15T09:22:47.255Z,98038.91
2024-01-15T09:25:15.021Z,98044.03
2024-01-15T09:27:43.300Z,98038.94
2024-01-15T09:30:12.658Z,98051.09
2024-01-15T09:32:40.579Z,98047.66
2024-01-15T09:35:08.955Z,98055.41
2024-01-15T09:37:45.358Z,98037.22
2024-01-15T09:40:17.402Z,98058.09
2024-01-15T09:42:46.334Z,98071.22
2024-01-15T09:45:14.700Z,98075.63
2024-01-15T09:47:45.817Z,98065.03
2024-01-15T09:50:15.915Z,98072.88
2024-01-15T09:52:45.544Z,98070.88
2024-01-15T09:55:14.208Z,98065.88
2024-01-15T09:57:42.093Z,98066.47
2024-01-15T10:00:12.052Z,98070.09
2024-01-15T10:02:41.181Z,98068.47
2024-01-15T10:05:09.620Z,98079.69
2024-01-15T10:07:39.431Z,98065.19
2024-01-15T10:10:09.876Z,98071.25
2024-01-15T10:12:38.512Z,98071.38
2024-01-15T10:15:07.038Z,98070.72
2024-01-15T10:17:34.858Z,98078.16
2024-01-15T10:20:03.004Z,98078.19
2024-01-15T10:22:30.638Z,98061.72
2024-01-15T10:24:58.652Z,98065.94
2024-01-15T10:27:27.839Z,98077.00
2024-01-15T10:29:55.481Z,98073.41
2024-01-15T10:32:25.175Z,98082.13
2024-01-15T10:34:55.030Z,98092.44
2024-01-15T10:37:23.940Z,98092.31
2024-01-15T10:39:53.146Z,98087.97
2024-01-15T10:42:20.942Z,98083.47
2024-01-15T10:44:50.030Z,98084.56
2024-01-15T10:47:18.364Z,98093.34
2024-01-15T10:49:48.044Z,98088.94
2024-01-15T10:52:16.357Z,98087.03
2024-01-15T10:54:45.340Z,98078.00
2024-01-15T10:57:14.609Z,98069.41
2024-01-15T10:59:42.190Z,98078.75
2024-01-15T11:02:11.542Z,98081.44
2024-01-15T11:04:39.965Z,98082.13
2024-01-15T11:07:08.609Z,98079.44
2024-01-15T11:09:38.266Z,98072.56
2024-01-15T11:12:11.592Z,98085.69
2024-01-15T11:14:45.211Z,98078.94
2024-01-15T11:17:15.060Z,98067.63
2024-01-15T11:19:45.411Z,98077.81
2024-01-15T11:22:51.124Z,98080.28
2024-01-15T11:25:20.733Z,98078.38
2024-01-15T11:27:52.516Z,98075.72
2024-01-15T11:30:21.657Z,98077.66
2024-01-15T11:32:50.982Z,98077.41
2024-01-15T11:35:19.990Z,98078.72
2024-01-15T11:37:59.470Z,98078.44
2024-01-15T11:40:40.483Z,98066.31
2024-01-15T11:43:10.453Z,98079.56
2024-01-15T11:45:38.939Z,98076.78
2024-01-15T11:48:14.420Z,98079.69
2024-01-15T11:50:44.240Z,98097.59
2024-01-15T11:53:20.793Z,98087.34
2024-01-15T11:55:49.823Z,98076.06
2024-01-15T11:58:18.229Z,98079.66
2024-01-15T12:00:47.511Z,98080.66
2024-01-15T12:03:16.478Z,98089.59
2024-01-15T12:05:45.277Z,98094.50
2024-01-15T12:08:13.263Z,98093.66
2024-01-15T12:10:43.113Z,98068.13
2024-01-15T12:13:14.211Z,98089.47
2024-01-15T12:15:43.963Z,98083.34
2024-01-15T12:18:14.542Z,98084.00
2024-01-15T12:20:45.266Z,98080.47
2024-01-15T12:23:14.423Z,98056.94
2024-01-15T12:25:42.668Z,98061.63
2024-01-15T12:28:11.317Z,98077.56
2024-01-15T12:30:39.538Z,98059.59
2024-01-15T12:33:08.086Z,98058.97
2024-01-15T12:35:36.678Z,98066.63
2024-01-15T12:38:07.082Z,98028.81
2024-01-15T12:40:35.586Z,98048.25
2024-01-15T12:43:03.963Z,98051.06
2024-01-15T12:45:32.811Z,98062.28
2024-01-15T12:48:01.415Z,98061.25
2024-01-15T12:50:29.261Z,98049.50
2024-01-15T12:52:57.050Z,98039.25
2024-01-15T12:55:25.917Z,98021.16
2024-01-15T12:57:55.674Z,98039.94
2024-01-15T13:00:23.742Z,98045.22
2024-01-15T13:02:51.809Z,98051.97
2024-01-15T13:05:21.778Z,98056.19
2024-01-15T13:07:49.529Z,98029.06
2024-01-15T13:10:17.275Z,98046.91
2024-01-15T13:12:46.220Z,98041.72
2024-01-15T13:15:15.214Z,98045.97
2024-01-15T13:17:44.217Z,98035.63
2024-01-15T13:20:13.195Z,98043.09
2024-01-15T13:22:41.550Z,98056.97
2024-01-15T13:25:10.334Z,98052.47
2024-01-15T13:27:39.335Z,98051.81
2024-01-15T13:30:11.582Z,98053.78
2024-01-15T13:32:39.252Z,98047.06
2024-01-15T13:35:10.735Z,98055.56
2024-01-15T13:37:39.456Z,98047.16
2024-01-15T13:40:09.707Z,98047.94
2024-01-15T13:42:39.289Z,98042.06
2024-01-15T13:45:09.538Z,98036.88
2024-01-15T13:47:38.564Z,98035.38
2024-01-15T13:50:07.128Z,98036.00
2024-01-15T13:52:34.907Z,98031.03
2024-01-15T13:55:02.936Z,98036.25
2024-01-15T13:57:30.564Z,98036.00
2024-01-15T13:59:58.192Z,98050.72
2024-01-15T14:02:27.917Z,98032.75
2024-01-15T14:04:55.616Z,98045.69
2024-01-15T14:07:23.346Z,98040.16
2024-01-15T14:09:51.038Z,98050.00
2024-01-15T14:12:18.780Z,98032.50
2024-01-15T14:14:46.455Z,98046.81
2024-01-15T14:17:14.212Z,98039.56
2024-01-15T14:19:44.367Z,98051.91
2024-01-15T14:22:12.114Z,98052.41
2024-01-15T14:24:40.298Z,98071.72
2024-01-15T14:27:08.427Z,98044.34
2024-01-15T14:29:36.885Z,98059.97
2024-01-15T14:32:05.196Z,98070.28
2024-01-15T14:34:32.881Z,98062.53
2024-01-15T14:37:01.963Z,98066.47
2024-01-15T14:39:29.631Z,98075.09
2024-01-15T14:41:58.159Z,98076.94
2024-01-15T14:44:26.062Z,98082.22
2024-01-15T14:46:53.636Z,98079.47
2024-01-15T14:49:21.325Z,98082.50
2024-01-15T14:51:50.679Z,98076.47
2024-01-15T14:54:21.167Z,98088.03
2024-01-15T14:56:50.049Z,98093.16
2024-01-15T14:59:17.766Z,98103.53
2024-01-15T15:01:46.043Z,98106.13
2024-01-15T15:04:14.036Z,98115.22
2024-01-15T15:06:41.739Z,98106.59
2024-01-15T15:09:13.412Z,98110.63
2024-01-15T15:11:42.548Z,98121.75
2024-01-15T15:14:10.313Z,98119.34
2024-01-15T15:16:37.971Z,98121.13
2024-01-15T15:19:05.815Z,98122.91
2024-01-15T15:21:33.495Z,98117.84
2024-01-15T15:24:02.894Z,98120.78
2024-01-15T15:26:30.623Z,98137.69
2024-01-15T15:28:59.873Z,98127.53
2024-01-15T15:31:27.531Z,98116.63
2024-01-15T15:33:55.298Z,98122.41
2024-01-15T15:36:24.874Z,98135.44
2024-01-15T15:38:54.173Z,98138.13
2024-01-15T15:41:23.051Z,98144.22
2024-01-15T15:43:51.068Z,98127.88
2024-01-15T15:46:20.262Z,98144.47
2024-01-15T15:48:47.939Z,98142.69
2024-01-15T15:51:15.722Z,98144.66
2024-01-15T15:53:43.405Z,98152.94
2024-01-15T15:56:11.325Z,98153.94
2024-01-15T15:58:38.839Z,98149.69
2024-01-15T16:01:06.936Z,98154.84
2024-01-15T16:03:35.955Z,98153.94
2024-01-15T16:06:03.697Z,98146.19
2024-01-15T16:08:31.253Z,98145.34
2024-01-15T16:11:00.003Z,98148.16
2024-01-15T16:13:27.810Z,98159.22
2024-01-15T16:23:08.640Z,98167.78
2024-01-15T16:23:22.094Z,98174.78
2024-01-15T16:23:37.037Z,98156.13
2024-01-15T16:24:29.881Z,98165.69
2024-01-15T16:29:41.715Z,98167.38
2024-01-15T16:32:09.321Z,98175.13
2024-01-15T16:34:38.497Z,98177.84
2024-01-15T16:37:07.540Z,98160.03
2024-01-15T16:39:35.245Z,98194.56
2024-01-15T16:42:02.836Z,98200.44
2024-01-15T16:44:31.661Z,98196.06
2024-01-15T16:47:04.883Z,98199.03
2024-01-15T16:49:34.334Z,98193.09
2024-01-15T16:52:06.561Z,98197.75
2024-01-15T16:54:36.384Z,98232.97
2024-01-15T16:57:04.307Z,98201.88
2024-01-15T16:59:31.949Z,98214.13
2024-01-15T17:01:59.623Z,98219.25
2024-01-15T17:04:27.551Z,98212.53
2024-01-15T17:06:55.127Z,98213.53
2024-01-15T17:09:24.044Z,98228.84
2024-01-15T17:11:51.913Z,98238.31
2024-01-15T17:14:19.807Z,98245.56
2024-01-15T17:16:49.039Z,98222.34
2024-01-15T17:19:16.758Z,98245.50
2024-01-15T17:21:44.427Z,98266.44
2024-01-15T17:24:12.187Z,98259.88
2024-01-15T17:26:41.222Z,98259.72
2024-01-15T17:29:09.052Z,98265.09
2024-01-15T17:31:36.653Z,98259.19
2024-01-15T17:34:05.313Z,98256.81
2024-01-15T17:36:32.904Z,98276.75
2024-01-15T17:39:00.547Z,98274.38
2024-01-15T17:41:28.163Z,98278.00
2024-01-15T17:43:57.229Z,98318.34
2024-01-15T17:46:26.135Z,98276.38
2024-01-15T17:48:56.777Z,98286.91
2024-01-15T17:51:24.499Z,98286.19
2024-01-15T17:53:52.350Z,98294.88
2024-01-15T17:56:20.138Z,98306.28
2024-01-15T17:58:47.841Z,98319.22
2024-01-15T18:01:16.820Z,98305.47
2024-01-15T18:03:44.394Z,98321.34
2024-01-15T18:06:12.072Z,98326.63
2024-01-15T18:08:39.705Z,98321.34
2024-01-15T18:11:08.231Z,98331.81
2024-01-15T18:13:35.939Z,98328.44
2024-01-15T18:16:06.591Z,98351.81
2024-01-15T18:18:35.531Z,98361.47
2024-01-15T18:21:04.815Z,98352.03
2024-01-15T18:23:32.552Z,98354.78
2024-01-15T18:26:00.252Z,98367.00
2024-01-15T18:28:28.001Z,98379.03
2024-01-15T18:30:55.835Z,98368.75
2024-01-15T18:33:24.671Z,98385.19
2024-01-15T18:35:54.082Z,98385.25
2024-01-15T18:38:22.850Z,98386.25
2024-01-15T18:40:50.423Z,98392.44
2024-01-15T18:43:18.142Z,98401.06
2024-01-15T18:45:46.581Z,98417.47
2024-01-15T18:48:14.265Z,98430.84
2024-01-15T18:50:42.034Z,98407.91
2024-01-15T18:53:11.015Z,98418.34
2024-01-15T18:55:40.366Z,98407.06
2024-01-15T18:58:08.079Z,98408.81
2024-01-15T19:00:35.990Z,98412.31
2024-01-15T19:03:03.912Z,98423.00
2024-01-15T19:05:32.009Z,98437.47
2024-01-15T19:08:00.602Z,98420.44
2024-01-15T19:10:29.643Z,98417.88
2024-01-15T19:12:57.540Z,98423.13
2024-01-15T19:15:25.145Z,98425.66
2024-01-15T19:17:52.798Z,98436.00
2024-01-15T19:20:20.533Z,98442.97
2024-01-15T19:22:49.384Z,98423.34
2024-01-15T19:25:17.251Z,98429.16
2024-01-15T19:27:47.596Z,98442.19
2024-01-15T19:30:17.381Z,98442.31
2024-01-15T19:32:45.250Z,98462.00
2024-01-15T19:35:12.973Z,98452.66
2024-01-15T19:37:41.288Z,98476.69
2024-01-15T19:40:09.976Z,98474.84
2024-01-15T19:42:38.113Z,98479.91
2024-01-15T19:45:08.117Z,98455.28
2024-01-15T19:47:35.738Z,98465.69
2024-01-15T19:50:03.448Z,98456.97
2024-01-15T19:52:31.138Z,98459.66
2024-01-15T19:54:58.727Z,98492.16
2024-01-15T19:57:26.375Z,98462.16
2024-01-15T19:59:55.552Z,98481.41
2024-01-15T20:02:24.946Z,98510.72
2024-01-15T20:04:52.514Z,98483.97
2024-01-15T20:07:20.207Z,98483.34
2024-01-15T20:09:47.751Z,98502.31
2024-01-15T20:12:15.706Z,98509.56
2024-01-15T20:14:43.329Z,98518.00
2024-01-15T20:17:10.967Z,98481.56
2024-01-15T20:19:40.114Z,98501.66
2024-01-15T20:22:07.890Z,98488.72
2024-01-15T20:24:35.776Z,98535.47
2024-01-15T20:27:03.836Z,98519.81
2024-01-15T20:29:31.478Z,98521.47
2024-01-15T20:31:59.285Z,98524.22
2024-01-15T20:34:28.224Z,98523.28
2024-01-15T20:36:57.355Z,98538.19
2024-01-15T20:39:24.980Z,98542.47
2024-01-15T20:41:52.676Z,98544.19
2024-01-15T20:44:22.378Z,98536.38
2024-01-15T20:46:50.766Z,98543.41
2024-01-15T20:49:18.891Z,98523.41
2024-01-15T20:51:47.165Z,98522.66
2024-01-15T20:54:16.125Z,98537.34
2024-01-15T20:56:43.982Z,98536.56
2024-01-15T20:59:11.860Z,98551.31
2024-01-15T21:01:39.622Z,98532.22
2024-01-15T21:04:07.642Z,98549.59
2024-01-15T21:06:37.806Z,98555.66
2024-01-15T21:09:06.899Z,98541.88
2024-01-15T21:11:36.343Z,98554.97
2024-01-15T21:14:04.287Z,98545.28
2024-01-15T21:16:31.923Z,98555.81
2024-01-15T21:19:02.297Z,98535.16
2024-01-15T21:21:30.129Z,98551.44
2024-01-15T21:23:57.705Z,98552.34
2024-01-15T21:26:25.333Z,98561.91
2024-01-15T21:28:54.390Z,98561.00
2024-01-15T21:31:22.024Z,98550.59
2024-01-15T21:33:50.533Z,98563.53
2024-01-15T21:36:18.150Z,98554.81
2024-01-15T21:38:46.002Z,98554.13
2024-01-15T21:41:14.392Z,98569.00
2024-01-15T21:43:42.264Z,98569.00
2024-01-15T21:46:11.240Z,98568.13
2024-01-15T21:48:42.364Z,98576.69
2024-01-15T21:51:11.391Z,98571.53
2024-01-15T21:53:39.666Z,98566.38
2024-01-15T21:56:07.774Z,98568.03
2024-01-15T21:58:35.589Z,98569.00
2024-01-15T22:01:03.337Z,98567.28
2024-01-15T22:03:32.443Z,98575.06
2024-01-15T22:06:00.291Z,98569.16
2024-01-15T22:08:28.053Z,98596.88
2024-01-15T22:10:55.633Z,98583.88
2024-01-15T22:13:23.402Z,98578.69
2024-01-15T22:15:51.252Z,98591.78
2024-01-15T22:18:19.039Z,98580.47
2024-01-15T22:20:48.386Z,98580.69
2024-01-15T22:23:16.292Z,98613.47
2024-01-15T22:25:43.919Z,98601.28
2024-01-15T22:28:11.731Z,98586.47
2024-01-15T22:30:39.499Z,98580.47
2024-01-15T22:33:07.406Z,98574.47
2024-01-15T22:35:35.094Z,98564.34
2024-01-15T22:38:04.327Z,98580.56
2024-01-15T22:40:32.918Z,98606.63
2024-01-15T22:43:00.473Z,98600.63
2024-01-15T22:45:28.622Z,98599.03
2024-01-15T22:47:56.603Z,98598.06
2024-01-15T22:50:24.396Z,98602.44
2024-01-15T22:52:51.995Z,98617.25
2024-01-15T22:55:20.895Z,98610.50
2024-01-15T22:57:48.634Z,98627.75
2024-01-15T23:00:19.987Z,98621.00
2024-01-15T23:02:48.558Z,98615.59
2024-01-15T23:05:17.183Z,98624.28
2024-01-15T23:07:45.341Z,98623.56
2024-01-15T23:10:14.952Z,98624.53
2024-01-15T23:12:44.074Z,98632.41
2024-01-15T23:15:11.652Z,98620.06
2024-01-15T23:17:39.714Z,98636.72
2024-01-15T23:20:09.967Z,98626.19
2024-01-15T23:22:37.706Z,98640.19
2024-01-15T23:25:06.252Z,98649.72
2024-01-15T23:27:34.013Z,98633.28
2024-01-15T23:30:05.008Z,98630.78
2024-01-15T23:32:33.403Z,98655.06
2024-01-15T23:35:01.415Z,98649.88
2024-01-15T23:37:29.099Z,98648.19
2024-01-15T23:39:57.004Z,98652.53
2024-01-15T23:42:24.659Z,98648.19
2024-01-15T23:44:52.374Z,98670.16
2024-01-15T23:47:21.326Z,98661.34
2024-01-15T23:49:49.161Z,98665.78
2024-01-15T23:52:16.731Z,98663.91
2024-01-15T23:54:44.789Z,98665.78
2024-01-15T23:57:12.433Z,98667.56
2024-01-15T23:59:40.292Z,98669.28
